createdAt,value
2023-04-02T00:00:09.862Z,69.99
2023-04-02T00:02:56.680Z,69.39
2023-04-02T00:05:36.326Z,70.00
2023-04-02T00:08:10.291Z,69.97
2023-04-02T00:10:51.185Z,69.20
2023-04-02T00:13:18.022Z,69.98
2023-04-02T00:15:47.967Z,70.07
2023-04-02T00:18:17.657Z,69.36
2023-04-02T00:20:47.759Z,69.02
2023-04-02T00:23:15.462Z,69.42
2023-04-02T00:25:45.614Z,69.44
2023-04-02T00:28:15.073Z,69.45
2023-04-02T00:30:59.977Z,68.91
2023-04-02T00:33:28.657Z,69.31
2023-04-02T00:35:56.102Z,69.16
2023-04-02T00:38:30.652Z,69.44
2023-04-02T00:41:00.548Z,68.97
2023-04-02T00:43:31.011Z,69.11
2023-04-02T00:46:01.441Z,67.94
2023-04-02T00:48:32.888Z,68.92
2023-04-02T00:51:15.191Z,69.55
2023-04-02T00:53:45.486Z,67.44
2023-04-02T00:56:16.869Z,67.74
2023-04-02T00:58:44.986Z,68.17
2023-04-02T01:01:20.057Z,68.53
2023-04-02T01:03:58.303Z,67.45
2023-04-02T01:06:37.599Z,68.19
2023-04-02T01:09:34.641Z,68.05
2023-04-02T01:12:19.756Z,68.05
2023-04-02T01:15:00.139Z,66.54
2023-04-02T01:17:43.368Z,66.80
2023-04-02T01:20:13.394Z,66.82
2023-04-02T01:22:58.673Z,68.04
2023-04-02T01:25:47.808Z,69.95
2023-04-02T01:28:34.179Z,72.35
2023-04-02T01:31:02.838Z,73.66
2023-04-02T01:33:33.391Z,74.16
2023-04-02T01:36:11.617Z,73.30
2023-04-02T01:38:53.799Z,74.25
2023-04-02T01:41:27.723Z,74.79
2023-04-02T01:44:05.956Z,74.82
2023-04-02T01:46:34.522Z,74.21
2023-04-02T01:49:02.724Z,76.13
2023-04-02T01:51:32.850Z,73.83
2023-04-02T01:54:03.778Z,73.14
2023-04-02T01:56:31.201Z,74.00
2023-04-02T01:58:59.387Z,73.72
2023-04-02T02:02:08.039Z,74.27
2023-04-02T02:04:38.221Z,74.04
2023-04-02T02:07:14.710Z,74.41
2023-04-02T02:09:43.849Z,74.22
2023-04-02T02:12:13.842Z,73.62
2023-04-02T02:14:47.346Z,74.87
2023-04-02T02:17:20.385Z,75.28
2023-04-02T02:19:49.976Z,75.72
2023-04-02T02:22:29.365Z,75.70
2023-04-02T02:24:59.044Z,75.07
2023-04-02T02:27:26.070Z,74.32
2023-04-02T02:30:07.651Z,72.94
2023-04-02T02:32:36.612Z,72.16
2023-04-02T02:35:11.839Z,73.08
2023-04-02T02:37:44.851Z,72.40
2023-04-02T02:40:21.275Z,71.25
2023-04-02T02:42:51.741Z,70.71
2023-04-02T02:45:23.034Z,71.00
2023-04-02T02:47:50.740Z,69.88
2023-04-02T02:50:23.738Z,70.94
2023-04-02T02:52:54.913Z,70.53
2023-04-02T02:55:28.002Z,70.50
2023-04-02T02:58:07.118Z,70.57
2023-04-02T03:00:42.871Z,69.75
2023-04-02T03:03:13.819Z,69.11
2023-04-02T03:05:41.978Z,69.18
2023-04-02T03:08:29.048Z,69.15
2023-04-02T03:11:06.318Z,69.46
2023-04-02T03:13:35.749Z,69.34
2023-04-02T03:16:41.443Z,69.79
2023-04-02T03:19:31.977Z,69.62
2023-04-02T03:22:05.931Z,69.25
2023-04-02T03:25:04.858Z,69.51
2023-04-02T03:27:40.866Z,68.84
2023-04-02T03:30:26.506Z,69.21
2023-04-02T03:33:16.086Z,68.37
2023-04-02T03:35:55.231Z,68.55
2023-04-02T03:38:33.054Z,68.31
2023-04-02T03:41:15.968Z,69.23
2023-04-02T03:43:47.841Z,68.01
2023-04-02T03:46:33.665Z,67.79
2023-04-02T03:49:06.540Z,68.44
2023-04-02T03:51:38.654Z,68.77
2023-04-02T03:54:05.825Z,67.55
2023-04-02T03:56:40.117Z,68.93
2023-04-02T03:59:23.642Z,70.11
2023-04-02T04:02:18.432Z,69.96
2023-04-02T04:04:47.077Z,69.66
2023-04-02T04:07:41.203Z,70.31
2023-04-02T04:10:09.163Z,67.42
2023-04-02T04:12:40.326Z,67.42
2023-04-02T04:15:26.866Z,67.75
2023-04-02T04:18:04.987Z,69.14
2023-04-02T04:20:46.743Z,68.47
2023-04-02T04:23:17.139Z,67.04
2023-04-02T04:25:45.257Z,67.66
2023-04-02T04:28:28.135Z,68.24
2023-04-02T04:31:18.107Z,68.90
2023-04-02T04:33:51.005Z,68.07
2023-04-02T04:36:30.338Z,67.87
2023-04-02T04:39:14.634Z,67.93
2023-04-02T04:41:46.610Z,67.03
2023-04-02T04:44:24.271Z,68.28
2023-04-02T04:47:00.055Z,67.26
2023-04-02T04:49:42.086Z,68.19
2023-04-02T04:52:24.556Z,67.85
2023-04-02T04:54:52.414Z,67.98
2023-04-02T04:57:34.514Z,67.47
2023-04-02T05:00:34.810Z,69.13
2023-04-02T05:03:09.355Z,68.33
2023-04-02T05:05:40.996Z,67.69
2023-04-02T05:08:15.226Z,68.58
2023-04-02T05:10:52.170Z,66.28
2023-04-02T05:13:29.868Z,67.86
2023-04-02T05:16:18.762Z,67.52
2023-04-02T05:19:11.002Z,67.15
2023-04-02T05:21:38.955Z,67.66
2023-04-02T05:24:22.616Z,67.09
2023-04-02T05:26:51.362Z,66.85
2023-04-02T05:29:26.054Z,68.79
2023-04-02T05:31:56.804Z,66.61
2023-04-02T05:34:27.368Z,67.58
2023-04-02T05:36:55.796Z,66.92
2023-04-02T05:39:24.911Z,66.90
2023-04-02T05:42:08.440Z,67.29
2023-04-02T05:45:07.964Z,67.51
2023-04-02T05:47:41.187Z,68.35
2023-04-02T05:50:19.414Z,67.77
2023-04-02T05:52:54.082Z,69.17
2023-04-02T05:55:33.321Z,70.15
2023-04-02T05:58:35.947Z,71.60
2023-04-02T06:01:21.259Z,71.29
2023-04-02T06:03:56.359Z,71.03
2023-04-02T06:06:27.272Z,72.22
2023-04-02T06:08:59.199Z,72.03
2023-04-02T06:11:42.342Z,73.61
2023-04-02T06:14:13.692Z,73.36
2023-04-02T06:16:41.625Z,73.34
2023-04-02T06:19:16.629Z,74.01
2023-04-02T06:21:46.497Z,75.59
2023-04-02T06:24:17.838Z,75.42
2023-04-02T06:26:49.988Z,75.09
2023-04-02T06:29:31.514Z,75.44
2023-04-02T06:32:01.603Z,74.93
2023-04-02T06:34:32.033Z,75.24
2023-04-02T06:37:23.924Z,75.67
2023-04-02T06:39:57.913Z,75.17
2023-04-02T06:42:37.773Z,76.81
2023-04-02T06:45:26.880Z,76.53
2023-04-02T06:48:17.671Z,77.07
2023-04-02T06:50:53.543Z,76.66
2023-04-02T06:53:25.966Z,77.50
2023-04-02T06:56:10.758Z,76.84
2023-04-02T06:58:38.036Z,77.21
2023-04-02T07:01:05.578Z,78.27
2023-04-02T07:03:42.106Z,79.25
2023-04-02T07:06:17.417Z,79.15
2023-04-02T07:08:46.152Z,79.02
2023-04-02T07:11:15.315Z,79.52
2023-04-02T07:13:42.511Z,79.24
2023-04-02T07:16:15.778Z,78.88
2023-04-02T07:18:43.256Z,78.70
2023-04-02T07:21:11.132Z,80.61
2023-04-02T07:23:38.494Z,80.49
2023-04-02T07:26:07.224Z,80.49
2023-04-02T07:28:34.236Z,80.88
2023-04-02T07:31:01.562Z,80.88
2023-04-02T07:33:31.119Z,80.38
2023-04-02T07:35:58.645Z,79.77
2023-04-02T07:38:25.900Z,80.00
2023-04-02T07:40:53.136Z,78.88
2023-04-02T07:43:20.104Z,79.12
2023-04-02T07:45:46.953Z,78.46
2023-04-02T07:48:14.291Z,78.65
2023-04-02T07:50:41.965Z,78.58
2023-04-02T07:53:27.261Z,78.03
2023-04-02T07:55:54.037Z,78.12
2023-04-02T07:58:20.850Z,77.67
2023-04-02T08:00:47.691Z,78.20
2023-04-02T08:03:14.733Z,79.10
2023-04-02T08:05:41.644Z,78.94
2023-04-02T08:08:08.336Z,78.18
2023-04-02T08:10:35.344Z,78.33
2023-04-02T08:13:02.548Z,78.39
2023-04-02T08:15:29.502Z,78.43
2023-04-02T08:17:57.202Z,78.13
2023-04-02T08:20:24.612Z,78.56
2023-04-02T08:22:51.788Z,78.00
2023-04-02T08:25:18.688Z,78.53
2023-04-02T08:27:49.729Z,78.23
2023-04-02T08:30:17.632Z,78.23
2023-04-02T08:32:44.916Z,77.49
2023-04-02T08:35:14.903Z,77.20
2023-04-02T08:37:42.464Z,77.27
2023-04-02T08:40:19.334Z,77.84
2023-04-02T08:43:09.732Z,77.31
2023-04-02T08:46:15.184Z,78.34
2023-04-02T08:48:46.976Z,78.55
2023-04-02T08:51:25.030Z,78.06
2023-04-02T08:53:54.834Z,78.04
2023-04-02T08:56:41.564Z,79.39
2023-04-02T08:59:35.932Z,78.50
2023-04-02T09:02:06.478Z,77.56
2023-04-02T09:04:34.002Z,78.93
2023-04-02T09:07:01.198Z,78.65
2023-04-02T09:09:28.329Z,78.75
2023-04-02T09:12:05.291Z,79.29
2023-04-02T09:15:07.401Z,79.98
2023-04-02T09:17:42.649Z,78.99
2023-04-02T09:20:17.498Z,78.41
2023-04-02T09:22:44.829Z,78.86
2023-04-02T09:25:18.917Z,79.00
2023-04-02T09:27:49.755Z,77.99
2023-04-02T09:30:32.317Z,77.42
2023-04-02T09:33:02.181Z,77.88
2023-04-02T09:35:32.474Z,77.31
2023-04-02T09:38:08.180Z,76.55
2023-04-02T09:41:03.920Z,76.69
2023-04-02T09:43:35.466Z,77.64
2023-04-02T09:46:05.252Z,76.98
2023-04-02T09:48:41.791Z,77.26
2023-04-02T09:51:16.551Z,77.14
2023-04-02T09:54:13.297Z,77.92
2023-04-02T09:56:41.343Z,75.76
2023-04-02T09:59:14.061Z,75.46
2023-04-02T10:01:45.404Z,75.91
2023-04-02T10:04:37.421Z,74.38
2023-04-02T10:07:06.469Z,74.09
2023-04-02T10:09:35.595Z,74.44
2023-04-02T10:12:05.510Z,76.26
2023-04-02T10:14:43.375Z,75.44
2023-04-02T10:17:17.204Z,75.38
2023-04-02T10:19:49.054Z,73.68
2023-04-02T10:22:18.756Z,73.67
2023-04-02T10:24:45.721Z,74.55
2023-04-02T10:27:29.686Z,74.54
2023-04-02T10:30:05.544Z,76.13
2023-04-02T10:32:46.856Z,76.22
2023-04-02T10:35:25.345Z,77.52
2023-04-02T10:38:08.328Z,77.16
2023-04-02T10:40:37.284Z,78.89
2023-04-02T10:43:37.891Z,79.21
2023-04-02T10:46:14.394Z,79.99
2023-04-02T10:48:59.915Z,79.53
2023-04-02T10:51:29.686Z,80.30
2023-04-02T10:54:15.483Z,81.05
2023-04-02T10:56:50.709Z,81.17
2023-04-02T10:59:28.715Z,82.58
2023-04-02T11:01:57.719Z,81.31
2023-04-02T11:04:46.124Z,83.13
2023-04-02T11:07:22.882Z,82.07
2023-04-02T11:09:52.286Z,82.47
2023-04-02T11:12:25.712Z,82.73
2023-04-02T11:14:53.886Z,82.64
2023-04-02T11:17:21.049Z,82.40
2023-04-02T11:19:47.945Z,81.99
2023-04-02T11:22:24.933Z,80.78
2023-04-02T11:24:54.819Z,80.53
2023-04-02T11:27:23.846Z,80.85
2023-04-02T11:29:50.936Z,80.57
2023-04-02T11:32:20.761Z,81.17
2023-04-02T11:35:03.055Z,80.88
2023-04-02T11:37:32.283Z,82.04
2023-04-02T11:40:06.158Z,82.07
2023-04-02T11:42:34.511Z,81.59
2023-04-02T11:45:23.873Z,81.37
2023-04-02T11:48:00.049Z,81.78
2023-04-02T11:50:35.628Z,82.79
2023-04-02T11:53:23.262Z,82.54
2023-04-02T11:56:05.074Z,81.46
2023-04-02T11:58:50.418Z,82.13
2023-04-02T12:01:40.470Z,80.91
2023-04-02T12:04:29.482Z,80.40
2023-04-02T12:07:36.694Z,81.50
2023-04-02T12:10:18.911Z,80.40
2023-04-02T12:12:46.539Z,79.21
2023-04-02T12:15:28.905Z,80.53
2023-04-02T12:18:06.198Z,79.52
2023-04-02T12:20:33.693Z,81.27
2023-04-02T12:23:01.347Z,80.71
2023-04-02T12:25:31.819Z,82.07
2023-04-02T12:28:20.083Z,80.48
2023-04-02T12:30:48.311Z,81.82
2023-04-02T12:33:26.703Z,80.43
2023-04-02T12:36:01.803Z,82.74
2023-04-02T12:38:34.529Z,83.73
2023-04-02T12:41:04.329Z,83.88
2023-04-02T12:43:33.694Z,83.53
2023-04-02T12:46:06.213Z,83.58
2023-04-02T12:48:33.911Z,82.57
2023-04-02T12:51:01.379Z,81.06
2023-04-02T12:53:37.347Z,80.55
2023-04-02T12:56:04.524Z,82.82
2023-04-02T12:58:42.655Z,82.26
2023-04-02T13:01:14.859Z,81.79
2023-04-02T13:03:42.153Z,82.24
2023-04-02T13:06:27.186Z,82.14
2023-04-02T13:08:55.171Z,82.90
2023-04-02T13:11:22.741Z,81.91
2023-04-02T13:13:50.600Z,81.50
2023-04-02T13:16:17.880Z,79.78
2023-04-02T13:18:47.060Z,81.10
2023-04-02T13:21:17.403Z,81.00
2023-04-02T13:23:46.180Z,82.15
2023-04-02T13:26:16.959Z,82.24
2023-04-02T13:29:10.654Z,81.55
2023-04-02T13:31:38.060Z,81.55
2023-04-02T13:34:04.902Z,82.99
2023-04-02T13:36:32.158Z,81.57
2023-04-02T13:38:59.098Z,79.96
2023-04-02T13:41:27.648Z,80.92
2023-04-02T13:43:54.751Z,80.54
2023-04-02T13:46:27.148Z,82.13
2023-04-02T13:48:55.455Z,79.12
2023-04-02T13:51:32.870Z,80.39
2023-04-02T13:53:59.791Z,80.53
2023-04-02T13:56:27.404Z,79.97
2023-04-02T13:58:54.696Z,80.02
2023-04-02T14:01:22.988Z,81.77
2023-04-02T14:03:50.288Z,82.18
2023-04-02T14:06:35.554Z,81.70
2023-04-02T14:09:09.408Z,81.47
2023-04-02T14:11:52.474Z,82.04
2023-04-02T14:14:48.265Z,81.94
2023-04-02T14:17:49.978Z,80.07
2023-04-02T14:20:29.104Z,81.08
2023-04-02T14:23:14.915Z,81.01
2023-04-02T14:25:56.666Z,81.62
2023-04-02T14:28:27.035Z,82.01
2023-04-02T14:31:15.138Z,81.20
2023-04-02T14:33:58.033Z,81.30
2023-04-02T14:36:34.171Z,81.65
2023-04-02T14:39:19.674Z,80.54
2023-04-02T14:41:52.582Z,81.05
2023-04-02T14:44:22.378Z,81.78
2023-04-02T14:46:50.246Z,81.01
2023-04-02T14:49:27.211Z,81.16
2023-04-02T14:51:59.179Z,80.46
2023-04-02T14:54:28.952Z,81.78
2023-04-02T14:57:21.423Z,82.58
2023-04-02T15:00:05.113Z,82.16
2023-04-02T15:02:54.768Z,80.65
2023-04-02T15:05:46.920Z,81.72
2023-04-02T15:08:19.768Z,82.60
2023-04-02T15:11:11.280Z,81.09
2023-04-02T15:13:41.416Z,81.42
2023-04-02T15:16:18.883Z,81.97
2023-04-02T15:18:46.474Z,80.64
2023-04-02T15:21:19.142Z,82.00
2023-04-02T15:24:11.940Z,81.29
2023-04-02T15:27:21.946Z,82.01
2023-04-02T15:30:01.582Z,80.85
2023-04-02T15:32:32.505Z,83.19
2023-04-02T15:35:33.813Z,83.97
2023-04-02T15:38:22.675Z,83.94
2023-04-02T15:40:58.938Z,81.59
2023-04-02T15:44:10.738Z,81.32
2023-04-02T15:46:42.393Z,84.08
2023-04-02T15:49:21.971Z,85.09
2023-04-02T15:52:10.519Z,84.31
2023-04-02T15:54:37.542Z,85.02
2023-04-02T15:57:21.496Z,86.32
2023-04-02T16:00:11.459Z,89.36
2023-04-02T16:02:53.224Z,90.54
2023-04-02T16:05:36.996Z,91.73
2023-04-02T16:08:14.008Z,91.38
2023-04-02T16:10:43.015Z,89.35
2023-04-02T16:13:30.828Z,89.72
2023-04-02T16:16:03.599Z,90.87
2023-04-02T16:18:41.410Z,92.02
2023-04-02T16:21:11.024Z,91.06
2023-04-02T16:23:39.336Z,92.08
2023-04-02T16:26:17.976Z,91.99
2023-04-02T16:29:03.011Z,100.00
2023-04-02T16:31:50.888Z,93.03
2023-04-02T16:35:15.222Z,91.26
2023-04-02T16:37:51.489Z,90.84
2023-04-02T16:40:41.430Z,89.71
2023-04-02T16:43:30.106Z,89.61
2023-04-02T16:46:38.172Z,88.99
2023-04-02T16:49:18.772Z,89.27
2023-04-02T16:51:56.851Z,89.75
2023-04-02T16:54:45.952Z,90.72
2023-04-02T16:57:33.209Z,91.66
2023-04-02T17:00:25.250Z,90.59
2023-04-02T17:03:02.985Z,90.06
2023-04-02T17:05:40.388Z,90.99
2023-04-02T17:08:23.172Z,89.34
2023-04-02T17:10:55.819Z,90.00
2023-04-02T17:13:41.783Z,90.44
2023-04-02T17:16:14.022Z,90.34
2023-04-02T17:18:43.648Z,87.83
2023-04-02T17:21:14.715Z,89.03
2023-04-02T17:24:00.879Z,89.99
2023-04-02T17:26:29.883Z,89.84
2023-04-02T17:28:59.078Z,89.19
2023-04-02T17:31:27.856Z,89.20
2023-04-02T17:33:54.564Z,89.51
2023-04-02T17:36:35.457Z,88.69
2023-04-02T17:39:04.892Z,88.75
2023-04-02T17:42:14.448Z,87.06
2023-04-02T17:45:01.386Z,87.66
2023-04-02T17:47:43.346Z,89.13
2023-04-02T17:50:35.428Z,88.66
2023-04-02T17:53:36.140Z,89.41
2023-04-02T17:56:24.855Z,90.53
2023-04-02T17:58:51.571Z,88.30
2023-04-02T18:01:35.883Z,86.45
2023-04-02T18:04:02.689Z,86.72
2023-04-02T18:06:46.872Z,88.03
2023-04-02T18:09:35.244Z,88.19
2023-04-02T18:12:06.952Z,89.40
2023-04-02T18:14:45.963Z,89.82
2023-04-02T18:17:18.946Z,88.20
2023-04-02T18:20:03.898Z,89.16
2023-04-02T18:22:42.615Z,89.70
2023-04-02T18:25:32.676Z,89.34
2023-04-02T18:28:02.344Z,88.56
2023-04-02T18:30:39.789Z,88.53
2023-04-02T18:33:18.350Z,88.57
2023-04-02T18:36:01.218Z,88.99
2023-04-02T18:38:44.953Z,88.47
2023-04-02T18:41:18.197Z,89.52
2023-04-02T18:43:54.844Z,89.70
2023-04-02T18:46:28.893Z,89.70
2023-04-02T18:48:59.051Z,88.65
2023-04-02T18:51:29.278Z,89.25
2023-04-02T18:54:35.832Z,90.32
2023-04-02T18:57:11.367Z,90.76
2023-04-02T18:59:41.583Z,88.20
2023-04-02T19:02:17.287Z,89.11
2023-04-02T19:04:52.467Z,88.71
2023-04-02T19:07:20.055Z,90.57
2023-04-02T19:09:48.438Z,89.55
2023-04-02T19:12:19.048Z,89.45
2023-04-02T19:14:50.133Z,87.08
2023-04-02T19:17:23.792Z,87.66
2023-04-02T19:20:02.643Z,87.02
2023-04-02T19:22:47.792Z,86.34
2023-04-02T19:25:27.313Z,87.92
2023-04-02T19:27:58.103Z,88.13
2023-04-02T19:30:49.186Z,89.09
2023-04-02T19:33:48.399Z,88.08
2023-04-02T19:36:34.035Z,88.26
2023-04-02T19:39:00.888Z,88.42
2023-04-02T19:41:49.859Z,86.15
2023-04-02T19:44:17.486Z,87.25
2023-04-02T19:46:45.052Z,85.19
2023-04-02T19:49:16.968Z,84.97
2023-04-02T19:51:44.108Z,85.64
2023-04-02T19:54:11.300Z,84.81
2023-04-02T19:56:38.020Z,84.26
2023-04-02T19:59:17.079Z,85.60
2023-04-02T20:01:45.664Z,85.05
2023-04-02T20:04:13.289Z,85.57
2023-04-02T20:06:40.461Z,85.67
2023-04-02T20:09:08.737Z,87.25
2023-04-02T20:11:37.108Z,85.76
2023-04-02T20:14:04.267Z,87.06
2023-04-02T20:16:31.250Z,85.80
2023-04-02T20:18:58.347Z,86.78
2023-04-02T20:21:24.989Z,86.46
2023-04-02T20:23:55.710Z,87.51
2023-04-02T20:26:23.333Z,86.89
2023-04-02T20:28:50.107Z,86.26
2023-04-02T20:31:18.477Z,87.32
2023-04-02T20:33:45.599Z,87.42
2023-04-02T20:36:15.018Z,88.17
2023-04-02T20:38:41.959Z,87.07
2023-04-02T20:41:09.240Z,91.00
2023-04-02T20:43:37.660Z,92.51
2023-04-02T20:46:05.762Z,91.86
2023-04-02T20:48:34.140Z,91.52
2023-04-02T20:51:02.861Z,90.67
2023-04-02T20:53:31.028Z,89.97
2023-04-02T20:56:11.694Z,90.76
2023-04-02T20:58:40.063Z,90.93
2023-04-02T21:01:28.852Z,90.24
2023-04-02T21:04:00.373Z,90.41
2023-04-02T21:06:30.248Z,89.27
2023-04-02T21:08:57.303Z,88.06
2023-04-02T21:11:24.671Z,87.57
2023-04-02T21:13:51.712Z,87.33
2023-04-02T21:16:23.445Z,87.22
2023-04-02T21:18:52.321Z,87.38
2023-04-02T21:21:18.926Z,85.09
2023-04-02T21:23:45.645Z,85.34
2023-04-02T21:26:17.522Z,87.15
2023-04-02T21:28:45.616Z,87.63
2023-04-02T21:31:20.889Z,85.95
2023-04-02T21:33:52.572Z,87.76
2023-04-02T21:36:24.070Z,87.07
2023-04-02T21:38:53.434Z,85.49
2023-04-02T21:41:26.512Z,84.04
2023-04-02T21:43:54.075Z,84.81
2023-04-02T21:46:23.831Z,86.12
2023-04-02T21:48:51.893Z,85.93
2023-04-02T21:51:21.582Z,86.87
2023-04-02T21:53:49.348Z,86.30
2023-04-02T21:56:18.519Z,86.50
2023-04-02T21:58:46.550Z,85.88
2023-04-02T22:01:26.116Z,85.73
2023-04-02T22:03:58.452Z,85.95
2023-04-02T22:06:26.701Z,85.41
2023-04-02T22:08:58.203Z,86.26
2023-04-02T22:11:39.780Z,86.18
2023-04-02T22:14:06.881Z,87.02
2023-04-02T22:16:34.829Z,86.50
2023-04-02T22:19:04.712Z,86.79
2023-04-02T22:21:31.629Z,86.63
2023-04-02T22:24:02.722Z,85.30
2023-04-02T22:26:29.755Z,87.30
2023-04-02T22:28:56.750Z,88.20
2023-04-02T22:31:27.497Z,88.09
2023-04-02T22:33:55.971Z,87.41
2023-04-02T22:36:24.587Z,86.03
2023-04-02T22:38:51.892Z,87.88
2023-04-02T22:41:22.518Z,87.59
2023-04-02T22:43:50.242Z,88.82
2023-04-02T22:46:18.497Z,89.27
2023-04-02T22:48:46.770Z,88.25
2023-04-02T22:51:15.412Z,87.81
2023-04-02T22:53:43.222Z,88.80
2023-04-02T22:56:14.122Z,87.45
2023-04-02T22:58:41.738Z,87.56
2023-04-02T23:01:13.306Z,86.46
2023-04-02T23:03:40.344Z,86.60
2023-04-02T23:06:09.981Z,87.19
2023-04-02T23:08:37.563Z,87.59
2023-04-02T23:11:07.703Z,88.41
2023-04-02T23:13:35.975Z,86.35
2023-04-02T23:16:04.535Z,86.86
2023-04-02T23:18:36.167Z,86.13
2023-04-02T23:21:04.266Z,86.18
2023-04-02T23:23:31.682Z,86.61
2023-04-02T23:26:09.958Z,86.52
2023-04-02T23:28:38.525Z,85.13
2023-04-02T23:31:07.658Z,86.63
2023-04-02T23:33:35.599Z,83.33
2023-04-02T23:36:10.227Z,84.70
2023-04-02T23:38:37.095Z,86.02
2023-04-02T23:41:03.980Z,85.88
2023-04-02T23:43:30.971Z,87.73
2023-04-02T23:45:57.961Z,85.75
2023-04-02T23:48:24.942Z,85.43
2023-04-02T23:50:52.177Z,86.70
2023-04-02T23:53:19.281Z,85.97
2023-04-02T23:55:46.186Z,85.75
2023-04-02T23:58:13.242Z,87.17
